createdAt,value
2024-02-21T00:00:55.329Z,6.35
2024-02-21T00:06:00.418Z,8.63
2024-02-21T00:11:03.851Z,9.88
2024-02-21T00:16:08.858Z,11.10
2024-02-21T00:21:19.090Z,6.65
2024-02-21T00:26:23.328Z,8.00
2024-02-21T00:31:27.627Z,7.47
2024-02-21T00:36:33.260Z,5.82
2024-02-21T00:41:39.858Z,8.07
2024-02-21T00:46:44.318Z,8.40
2024-02-21T00:51:55.239Z,9.57
2024-02-21T00:57:00.068Z,9.00
2024-02-21T01:02:09.049Z,6.93
2024-02-21T01:07:15.137Z,9.18
2024-02-21T01:12:19.701Z,5.22
2024-02-21T01:17:25.206Z,11.10
2024-02-21T01:22:31.118Z,8.27
2024-02-21T01:27:35.447Z,8.98
2024-02-21T01:32:46.702Z,6.60
2024-02-21T01:37:53.254Z,11.82
2024-02-21T01:42:58.942Z,11.07
2024-02-21T01:48:10.222Z,9.45
2024-02-21T01:53:19.829Z,12.80
2024-02-21T01:58:33.051Z,7.80
2024-02-21T02:03:38.686Z,11.15
2024-02-21T02:08:45.696Z,8.05
2024-02-21T02:13:50.219Z,16.58
2024-02-21T02:18:54.513Z,12.43
2024-02-21T02:24:00.528Z,7.30
2024-02-21T02:29:05.287Z,5.95
2024-02-21T02:34:11.060Z,8.43
2024-02-21T02:39:18.836Z,6.40
2024-02-21T02:44:23.291Z,7.80
2024-02-21T02:49:27.645Z,6.65
2024-02-21T02:54:32.744Z,6.07
2024-02-21T02:59:37.283Z,11.25
2024-02-21T03:04:46.362Z,11.40
2024-02-21T03:09:52.437Z,7.55
2024-02-21T03:14:57.097Z,8.43
2024-02-21T03:20:01.779Z,7.13
2024-02-21T03:25:14.131Z,6.65
2024-02-21T03:30:19.884Z,7.35
2024-02-21T03:35:27.935Z,6.70
2024-02-21T03:40:36.279Z,6.28
2024-02-21T03:45:40.827Z,7.18
2024-02-21T03:50:45.112Z,5.30
2024-02-21T03:55:50.603Z,5.95
2024-02-21T04:00:55.008Z,5.57
2024-02-21T04:05:59.242Z,8.15
2024-02-21T04:11:05.270Z,6.82
2024-02-21T04:16:09.779Z,10.48
2024-02-21T04:21:16.902Z,4.15
2024-02-21T04:26:22.729Z,6.05
2024-02-21T04:31:27.291Z,6.88
2024-02-21T04:36:31.658Z,10.52
2024-02-21T04:41:37.621Z,6.28
2024-02-21T04:46:45.440Z,5.55
2024-02-21T04:51:49.544Z,5.50
2024-02-21T04:56:55.614Z,4.93
2024-02-21T05:02:00.244Z,8.57
2024-02-21T05:07:04.702Z,7.60
2024-02-21T05:12:11.429Z,4.90
2024-02-21T05:17:17.997Z,6.03
2024-02-21T05:22:22.532Z,6.90
2024-02-21T05:27:28.395Z,7.60
2024-02-21T05:32:32.709Z,5.93
2024-02-21T05:37:36.596Z,5.03
2024-02-21T05:42:42.477Z,10.37
2024-02-21T05:47:46.907Z,7.80
2024-02-21T05:52:51.315Z,6.07
2024-02-21T05:58:00.579Z,6.57
2024-02-21T06:03:04.894Z,7.20
2024-02-21T06:08:10.510Z,6.70
2024-02-21T06:13:18.689Z,11.73
2024-02-21T06:18:23.093Z,5.63
2024-02-21T06:23:26.616Z,11.60
2024-02-21T06:28:31.745Z,8.80
2024-02-21T06:33:35.407Z,10.13
2024-02-21T06:38:39.018Z,7.27
2024-02-21T06:43:44.090Z,6.47
2024-02-21T06:48:48.966Z,7.90
2024-02-21T06:54:00.709Z,5.13
2024-02-21T06:59:05.934Z,5.70
2024-02-21T07:04:09.704Z,4.22
2024-02-21T07:09:13.658Z,4.28
2024-02-21T07:14:18.663Z,7.05
2024-02-21T07:19:23.030Z,4.65
2024-02-21T07:24:26.941Z,4.78
2024-02-21T07:29:31.992Z,7.97
2024-02-21T07:34:35.553Z,8.00
2024-02-21T07:39:39.670Z,4.30
2024-02-21T07:44:44.590Z,8.63
2024-02-21T07:49:50.298Z,5.18
2024-02-21T07:54:54.151Z,7.57
2024-02-21T07:59:59.074Z,7.25
2024-02-21T08:05:02.848Z,7.30
2024-02-21T08:10:09.518Z,10.27
2024-02-21T08:15:14.818Z,7.53
2024-02-21T08:20:18.609Z,6.68
2024-02-21T08:25:22.212Z,6.93
2024-02-21T08:30:27.195Z,9.07
2024-02-21T08:35:30.813Z,6.65
2024-02-21T08:40:36.630Z,11.75
2024-02-21T08:45:41.747Z,5.75
2024-02-21T08:50:45.571Z,4.95
2024-02-21T08:55:49.318Z,9.32
2024-02-21T09:00:54.639Z,4.40
2024-02-21T09:05:58.428Z,4.10
2024-02-21T09:11:03.710Z,6.22
2024-02-21T09:16:10.524Z,4.25
2024-02-21T09:21:14.404Z,3.05
2024-02-21T09:26:18.384Z,4.65
2024-02-21T09:31:23.484Z,5.53
2024-02-21T09:36:27.186Z,7.47
2024-02-21T09:41:31.000Z,9.02
2024-02-21T09:46:53.494Z,6.82
2024-02-21T09:52:00.089Z,7.00
2024-02-21T09:57:04.799Z,8.50
2024-02-21T10:02:10.083Z,6.28
2024-02-21T10:07:15.518Z,4.35
2024-02-21T10:12:20.610Z,5.85
2024-02-21T10:17:25.852Z,3.95
2024-02-21T10:22:31.877Z,4.32
2024-02-21T10:27:35.514Z,4.35
2024-02-21T10:32:50.970Z,10.10
2024-02-21T10:37:56.969Z,6.10
2024-02-21T10:43:02.092Z,7.68
2024-02-21T10:48:13.410Z,5.55
2024-02-21T10:53:27.054Z,7.18
2024-02-21T10:58:31.831Z,4.22
2024-02-21T11:03:37.904Z,3.13
2024-02-21T11:08:41.779Z,5.68
2024-02-21T11:13:47.296Z,4.35
2024-02-21T11:18:52.554Z,4.50
2024-02-21T11:23:58.897Z,3.78
2024-02-21T11:29:04.056Z,2.17
2024-02-21T11:34:11.609Z,3.15
2024-02-21T11:39:18.401Z,3.65
2024-02-21T11:44:22.213Z,9.02
2024-02-21T11:49:30.872Z,6.10
2024-02-21T11:54:35.022Z,5.22
2024-02-21T11:59:39.746Z,4.57
2024-02-21T12:04:46.035Z,1.90
2024-02-21T12:09:49.701Z,2.58
2024-02-21T12:15:00.295Z,4.53
2024-02-21T12:20:10.966Z,7.72
2024-02-21T12:25:24.262Z,1.65
2024-02-21T12:30:27.946Z,1.83
2024-02-21T12:35:34.848Z,4.78
2024-02-21T12:40:39.893Z,2.15
2024-02-21T12:45:43.730Z,3.03
2024-02-21T12:50:52.849Z,2.10
2024-02-21T12:55:56.269Z,2.67
2024-02-21T13:00:59.923Z,2.90
2024-02-21T13:06:05.666Z,3.00
2024-02-21T13:11:09.949Z,2.50
2024-02-21T13:16:13.623Z,2.60
2024-02-21T13:21:18.735Z,3.00
2024-02-21T13:26:22.254Z,2.67
2024-02-21T13:31:26.861Z,6.03
2024-02-21T13:36:32.166Z,3.33
2024-02-21T13:41:36.042Z,3.65
2024-02-21T13:46:40.629Z,2.70
2024-02-21T13:51:46.297Z,4.53
2024-02-21T13:56:50.197Z,2.53
2024-02-21T14:01:54.672Z,4.28
2024-02-21T14:07:00.560Z,5.85
2024-02-21T14:12:04.770Z,7.50
2024-02-21T14:17:08.662Z,4.40
2024-02-21T14:22:13.910Z,3.88
2024-02-21T14:27:17.519Z,3.22
2024-02-21T14:32:21.258Z,2.80
2024-02-21T14:37:26.386Z,2.35
2024-02-21T14:42:30.102Z,1.92
2024-02-21T14:47:34.221Z,2.92
2024-02-21T14:52:39.666Z,4.93
2024-02-21T14:57:44.343Z,2.85
2024-02-21T15:02:48.195Z,3.38
2024-02-21T15:07:53.655Z,2.28
2024-02-21T15:12:57.510Z,1.00
2024-02-21T15:18:01.352Z,1.95
2024-02-21T15:23:07.093Z,1.77
2024-02-21T15:28:11.657Z,1.88
2024-02-21T15:33:15.953Z,1.83
2024-02-21T15:38:21.686Z,1.05
2024-02-21T15:43:26.127Z,2.03
2024-02-21T15:48:30.037Z,1.50
2024-02-21T15:53:36.876Z,2.22
2024-02-21T15:58:41.727Z,2.58
2024-02-21T16:03:45.512Z,1.48
2024-02-21T16:08:51.679Z,3.53
2024-02-21T16:13:56.455Z,4.72
2024-02-21T16:19:00.824Z,5.80
2024-02-21T16:24:06.811Z,6.30
2024-02-21T16:29:16.065Z,5.18
2024-02-21T16:34:19.982Z,5.28
2024-02-21T16:39:28.642Z,3.67
2024-02-21T16:44:34.652Z,8.55
2024-02-21T16:49:38.712Z,8.98
2024-02-21T16:54:45.797Z,6.00
2024-02-21T16:59:49.399Z,6.88
2024-02-21T17:04:55.142Z,4.85
2024-02-21T17:10:02.277Z,20.75
2024-02-21T17:15:08.522Z,16.63
2024-02-21T17:20:14.887Z,14.00
2024-02-21T17:25:19.994Z,12.52
2024-02-21T17:30:26.369Z,6.45
2024-02-21T17:35:30.232Z,3.80
2024-02-21T17:40:37.516Z,5.28
2024-02-21T17:45:42.141Z,2.42
2024-02-21T17:50:45.834Z,2.22
2024-02-21T17:55:51.915Z,3.05
2024-02-21T18:00:59.020Z,3.88
2024-02-21T18:06:04.253Z,1.55
2024-02-21T18:11:11.833Z,1.90
2024-02-21T18:16:16.982Z,2.17
2024-02-21T18:21:21.425Z,3.40
2024-02-21T18:26:30.983Z,5.20
2024-02-21T18:31:36.004Z,1.70
2024-02-21T18:36:39.759Z,1.50
2024-02-21T18:41:46.593Z,3.85
2024-02-21T18:46:51.742Z,1.45
2024-02-21T18:52:01.366Z,6.80
2024-02-21T18:57:06.862Z,2.08
2024-02-21T19:02:10.721Z,3.08
2024-02-21T19:07:14.700Z,3.47
2024-02-21T19:12:20.216Z,2.35
2024-02-21T19:17:24.418Z,2.95
2024-02-21T19:22:31.054Z,2.30
2024-02-21T19:28:00.189Z,3.10
2024-02-21T19:33:04.381Z,2.80
2024-02-21T19:38:10.453Z,3.70
2024-02-21T19:43:17.967Z,2.60
2024-02-21T19:48:22.004Z,4.65
2024-02-21T19:53:25.943Z,1.73
2024-02-21T19:58:33.495Z,1.52
2024-02-21T20:03:38.065Z,3.92
2024-02-21T20:08:44.044Z,2.95
2024-02-21T20:13:50.617Z,3.83
2024-02-21T20:18:54.716Z,1.20
2024-02-21T20:23:59.994Z,2.22
2024-02-21T20:29:08.339Z,0.88
2024-02-21T20:34:12.364Z,3.25
2024-02-21T20:39:16.972Z,1.40
2024-02-21T20:44:22.162Z,2.20
2024-02-21T20:49:27.464Z,2.13
2024-02-21T20:54:32.528Z,3.80
2024-02-21T20:59:37.755Z,1.90
2024-02-21T21:04:42.697Z,2.95
2024-02-21T21:09:47.707Z,1.50
2024-02-21T21:14:55.410Z,1.00
2024-02-21T21:19:59.322Z,2.90
2024-02-21T21:25:05.494Z,0.77
2024-02-21T21:30:11.971Z,0.47
2024-02-21T21:35:15.997Z,2.53
2024-02-21T21:40:19.715Z,2.78
2024-02-21T21:45:24.691Z,3.72
2024-02-21T21:50:28.466Z,0.95
2024-02-21T21:55:33.136Z,1.67
2024-02-21T22:00:38.037Z,1.48
2024-02-21T22:05:41.558Z,0.52
2024-02-21T22:10:45.372Z,3.50
2024-02-21T22:15:50.289Z,1.35
2024-02-21T22:20:53.964Z,1.80
2024-02-21T22:25:57.508Z,0.85
2024-02-21T22:31:02.658Z,1.05
2024-02-21T22:36:08.628Z,0.40
2024-02-21T22:41:12.449Z,2.30
2024-02-21T22:46:17.772Z,1.83
2024-02-21T22:51:24.839Z,0.70
2024-02-21T22:56:29.701Z,1.10
2024-02-21T23:01:38.308Z,1.13
2024-02-21T23:06:42.960Z,1.17
2024-02-21T23:11:46.791Z,1.55
2024-02-21T23:16:51.939Z,2.17
2024-02-21T23:22:04.111Z,1.40
2024-02-21T23:27:09.088Z,4.75
2024-02-21T23:32:15.586Z,1.48
2024-02-21T23:37:21.465Z,1.38
2024-02-21T23:42:31.486Z,2.28
2024-02-21T23:47:36.668Z,1.42
2024-02-21T23:52:42.424Z,1.58
2024-02-21T23:57:53.479Z,2.35
